sensor_id;sensor_type;location;lat;lon;timestamp;pressure;altitude;pressure_sealevel;temperature;humidity
23229;BME280;11783;50.350;6.576;2024-03-07T00:00:10;96902.72;;;4.01;100.00
23229;BME280;11783;50.350;6.576;2024-03-07T00:02:50;96899.28;;;4.01;100.00
23229;BME280;11783;50.350;6.576;2024-03-07T00:05:18;96899.03;;;3.95;100.00
23229;BME280;11783;50.350;6.576;2024-03-07T00:07:44;96899.72;;;3.89;100.00
23229;BME280;11783;50.350;6.576;2024-03-07T00:10:10;96898.28;;;3.87;100.00
23229;BME280;11783;50.350;6.576;2024-03-07T00:12:39;96893.50;;;3.90;100.00
23229;BME280;11783;50.350;6.576;2024-03-07T00:15:08;96904.19;;;3.89;100.00
23229;BME280;11783;50.350;6.576;2024-03-07T00:17:34;96907.47;;;3.91;100.00
23229;BME280;11783;50.350;6.576;2024-03-07T00:20:01;96899.09;;;3.87;100.00
23229;BME280;11783;50.350;6.576;2024-03-07T00:22:26;96894.31;;;3.91;100.00
23229;BME280;11783;50.350;6.576;2024-03-07T00:24:55;96894.13;;;3.92;100.00
23229;BME280;11783;50.350;6.576;2024-03-07T00:27:21;96897.03;;;3.83;100.00
23229;BME280;11783;50.350;6.576;2024-03-07T00:29:48;96905.00;;;3.89;100.00
23229;BME280;11783;50.350;6.576;2024-03-07T00:32:19;96900.09;;;3.86;100.00
23229;BME280;11783;50.350;6.576;2024-03-07T00:34:45;96893.50;;;3.90;100.00
23229;BME280;11783;50.350;6.576;2024-03-07T00:37:10;96893.50;;;3.90;100.00
23229;BME280;11783;50.350;6.576;2024-03-07T00:39:35;96891.38;;;4.01;100.00
23229;BME280;11783;50.350;6.576;2024-03-07T00:42:01;96894.84;;;3.86;100.00
23229;BME280;11783;50.350;6.576;2024-03-07T00:44:27;96898.09;;;3.88;100.00
23229;BME280;11783;50.350;6.576;2024-03-07T00:46:52;96898.28;;;4.02;100.00
23229;BME280;11783;50.350;6.576;2024-03-07T00:49:18;96890.78;;;3.84;100.00
23229;BME280;11783;50.350;6.576;2024-03-07T00:51:43;96890.97;;;3.82;100.00
23229;BME280;11783;50.350;6.576;2024-03-07T00:54:09;96888.91;;;3.78;100.00
23229;BME280;11783;50.350;6.576;2024-03-07T00:56:38;96883.16;;;3.89;100.00
23229;BME280;11783;50.350;6.576;2024-03-07T00:59:03;96882.88;;;3.84;100.00
23229;BME280;11783;50.350;6.576;2024-03-07T01:01:29;96881.41;;;3.96;100.00
23229;BME280;11783;50.350;6.576;2024-03-07T01:03:54;96881.38;;;3.75;100.00
23229;BME280;11783;50.350;6.576;2024-03-07T01:06:19;96874.94;;;3.77;100.00
23229;BME280;11783;50.350;6.576;2024-03-07T01:08:45;96879.94;;;3.72;100.00
23229;BME280;11783;50.350;6.576;2024-03-07T01:11:11;96883.91;;;3.68;100.00
23229;BME280;11783;50.350;6.576;2024-03-07T01:13:38;96882.66;;;3.64;100.00
23229;BME280;11783;50.350;6.576;2024-03-07T01:16:04;96874.22;;;3.69;100.00
23229;BME280;11783;50.350;6.576;2024-03-07T01:18:29;96867.41;;;3.74;100.00
23229;BME280;11783;50.350;6.576;2024-03-07T01:20:55;96874.13;;;3.77;100.00
23229;BME280;11783;50.350;6.576;2024-03-07T01:23:21;96868.50;;;3.80;100.00
23229;BME280;11783;50.350;6.576;2024-03-07T01:25:46;96870.94;;;3.81;100.00
23229;BME280;11783;50.350;6.576;2024-03-07T01:28:11;96867.13;;;3.84;100.00
23229;BME280;11783;50.350;6.576;2024-03-07T01:30:39;96866.50;;;3.82;100.00
23229;BME280;11783;50.350;6.576;2024-03-07T01:33:04;96860.84;;;3.85;100.00
23229;BME280;11783;50.350;6.576;2024-03-07T01:35:29;96857.03;;;3.87;100.00
23229;BME280;11783;50.350;6.576;2024-03-07T01:37:55;96854.78;;;3.84;100.00
23229;BME280;11783;50.350;6.576;2024-03-07T01:40:43;96861.41;;;3.80;100.00
23229;BME280;11783;50.350;6.576;2024-03-07T01:43:10;96855.84;;;3.90;100.00
23229;BME280;11783;50.350;6.576;2024-03-07T01:45:36;96855.59;;;3.85;100.00
23229;BME280;11783;50.350;6.576;2024-03-07T01:48:03;96853.97;;;3.84;100.00
23229;BME280;11783;50.350;6.576;2024-03-07T01:50:29;96856.91;;;3.74;100.00
23229;BME280;11783;50.350;6.576;2024-03-07T01:52:55;96851.47;;;3.76;100.00
23229;BME280;11783;50.350;6.576;2024-03-07T01:55:22;96848.47;;;3.64;100.00
23229;BME280;11783;50.350;6.576;2024-03-07T01:57:49;96849.13;;;3.51;100.00
23229;BME280;11783;50.350;6.576;2024-03-07T02:00:14;96837.72;;;3.44;100.00
23229;BME280;11783;50.350;6.576;2024-03-07T02:02:40;96835.09;;;3.44;100.00
23229;BME280;11783;50.350;6.576;2024-03-07T02:05:06;96836.34;;;3.48;100.00
23229;BME280;11783;50.350;6.576;2024-03-07T02:07:32;96834.16;;;3.52;100.00
23229;BME280;11783;50.350;6.576;2024-03-07T02:10:02;96834.91;;;3.60;100.00
23229;BME280;11783;50.350;6.576;2024-03-07T02:12:28;96828.19;;;3.73;100.00
23229;BME280;11783;50.350;6.576;2024-03-07T02:14:55;96827.72;;;3.69;100.00
23229;BME280;11783;50.350;6.576;2024-03-07T02:17:22;96822.50;;;3.54;100.00
23229;BME280;11783;50.350;6.576;2024-03-07T02:19:48;96825.22;;;3.46;100.00
23229;BME280;11783;50.350;6.576;2024-03-07T02:22:13;96818.09;;;3.40;100.00
23229;BME280;11783;50.350;6.576;2024-03-07T02:24:39;96817.63;;;3.37;100.00
23229;BME280;11783;50.350;6.576;2024-03-07T02:27:04;96822.41;;;3.33;100.00
23229;BME280;11783;50.350;6.576;2024-03-07T02:29:30;96817.16;;;3.33;100.00
23229;BME280;11783;50.350;6.576;2024-03-07T02:31:56;96807.84;;;3.30;100.00
23229;BME280;11783;50.350;6.576;2024-03-07T02:34:22;96817.16;;;3.33;100.00
23229;BME280;11783;50.350;6.576;2024-03-07T02:36:47;96805.03;;;3.32;100.00
23229;BME280;11783;50.350;6.576;2024-03-07T02:39:13;96804.59;;;3.28;100.00
23229;BME280;11783;50.350;6.576;2024-03-07T02:41:38;96805.78;;;3.26;100.00
23229;BME280;11783;50.350;6.576;2024-03-07T02:44:03;96806.13;;;3.23;100.00
23229;BME280;11783;50.350;6.576;2024-03-07T02:46:29;96807.31;;;3.20;100.00
23229;BME280;11783;50.350;6.576;2024-03-07T02:48:54;96804.59;;;3.14;100.00
23229;BME280;11783;50.350;6.576;2024-03-07T02:51:20;96808.22;;;3.13;100.00
23229;BME280;11783;50.350;6.576;2024-03-07T02:53:45;96799.06;;;3.09;100.00
23229;BME280;11783;50.350;6.576;2024-03-07T02:56:11;96796.19;;;3.03;100.00
23229;BME280;11783;50.350;6.576;2024-03-07T02:58:36;96799.69;;;2.96;100.00
23229;BME280;11783;50.350;6.576;2024-03-07T03:01:02;96788.13;;;2.90;100.00
23229;BME280;11783;50.350;6.576;2024-03-07T03:03:31;96790.66;;;2.84;100.00
23229;BME280;11783;50.350;6.576;2024-03-07T03:05:59;96788.41;;;2.81;100.00
23229;BME280;11783;50.350;6.576;2024-03-07T03:08:25;96789.91;;;2.75;100.00
23229;BME280;11783;50.350;6.576;2024-03-07T03:10:51;96799.97;;;2.71;100.00
23229;BME280;11783;50.350;6.576;2024-03-07T03:13:17;96792.28;;;2.70;100.00
23229;BME280;11783;50.350;6.576;2024-03-07T03:15:43;96791.47;;;2.69;100.00
23229;BME280;11783;50.350;6.576;2024-03-07T03:18:08;96786.13;;;2.63;100.00
23229;BME280;11783;50.350;6.576;2024-03-07T03:20:35;96785.19;;;2.56;100.00
23229;BME280;11783;50.350;6.576;2024-03-07T03:23:04;96780.31;;;2.53;100.00
23229;BME280;11783;50.350;6.576;2024-03-07T03:25:31;96775.59;;;2.48;100.00
23229;BME280;11783;50.350;6.576;2024-03-07T03:28:01;96774.53;;;2.42;100.00
23229;BME280;11783;50.350;6.576;2024-03-07T03:30:26;96775.03;;;2.38;100.00
23229;BME280;11783;50.350;6.576;2024-03-07T03:32:51;96772.13;;;2.33;100.00
23229;BME280;11783;50.350;6.576;2024-03-07T03:35:17;96775.31;;;2.28;100.00
23229;BME280;11783;50.350;6.576;2024-03-07T03:37:43;96775.19;;;2.22;100.00
23229;BME280;11783;50.350;6.576;2024-03-07T03:40:09;96776.88;;;2.15;100.00
23229;BME280;11783;50.350;6.576;2024-03-07T03:42:36;96783.13;;;2.13;100.00
23229;BME280;11783;50.350;6.576;2024-03-07T03:45:03;96778.22;;;2.10;100.00
23229;BME280;11783;50.350;6.576;2024-03-07T03:47:38;96768.09;;;2.07;100.00
23229;BME280;11783;50.350;6.576;2024-03-07T03:50:04;96773.53;;;2.06;100.00
23229;BME280;11783;50.350;6.576;2024-03-07T03:52:30;96769.91;;;2.07;100.00
23229;BME280;11783;50.350;6.576;2024-03-07T03:54:56;96767.47;;;2.05;100.00
23229;BME280;11783;50.350;6.576;2024-03-07T03:57:22;96767.16;;;2.00;100.00
23229;BME280;11783;50.350;6.576;2024-03-07T03:59:48;96770.31;;;1.96;100.00
23229;BME280;11783;50.350;6.576;2024-03-07T04:02:13;96776.19;;;1.98;100.00
23229;BME280;11783;50.350;6.576;2024-03-07T04:04:39;96772.03;;;1.89;100.00
23229;BME280;11783;50.350;6.576;2024-03-07T04:07:05;96773.50;;;1.83;100.00
23229;BME280;11783;50.350;6.576;2024-03-07T04:09:30;96770.16;;;1.74;100.00
23229;BME280;11783;50.350;6.576;2024-03-07T04:11:56;96772.47;;;1.69;100.00
23229;BME280;11783;50.350;6.576;2024-03-07T04:14:22;96767.09;;;1.63;100.00
23229;BME280;11783;50.350;6.576;2024-03-07T04:16:48;96773.84;;;1.57;100.00
23229;BME280;11783;50.350;6.576;2024-03-07T04:19:13;96770.59;;;1.55;100.00
23229;BME280;11783;50.350;6.576;2024-03-07T04:21:39;96766.63;;;1.59;100.00
23229;BME280;11783;50.350;6.576;2024-03-07T04:24:05;96765.63;;;1.68;100.00
23229;BME280;11783;50.350;6.576;2024-03-07T04:26:30;96763.44;;;1.49;100.00
23229;BME280;11783;50.350;6.576;2024-03-07T04:28:56;96769.53;;;1.41;100.00
23229;BME280;11783;50.350;6.576;2024-03-07T04:31:21;96767.59;;;1.35;100.00
23229;BME280;11783;50.350;6.576;2024-03-07T04:33:47;96771.38;;;1.33;100.00
23229;BME280;11783;50.350;6.576;2024-03-07T04:36:12;96761.22;;;1.30;100.00
23229;BME280;11783;50.350;6.576;2024-03-07T04:38:37;96761.59;;;1.27;100.00
23229;BME280;11783;50.350;6.576;2024-03-07T04:41:03;96758.66;;;1.21;100.00
23229;BME280;11783;50.350;6.576;2024-03-07T04:43:29;96755.06;;;1.23;100.00
23229;BME280;11783;50.350;6.576;2024-03-07T04:45:54;96751.97;;;1.19;100.00
23229;BME280;11783;50.350;6.576;2024-03-07T04:48:20;96747.72;;;1.18;100.00
23229;BME280;11783;50.350;6.576;2024-03-07T04:50:46;96739.91;;;1.10;100.00
23229;BME280;11783;50.350;6.576;2024-03-07T04:53:11;96743.84;;;1.06;100.00
23229;BME280;11783;50.350;6.576;2024-03-07T04:55:37;96742.91;;;0.99;100.00
23229;BME280;11783;50.350;6.576;2024-03-07T04:58:02;96749.31;;;0.96;100.00
23229;BME280;11783;50.350;6.576;2024-03-07T05:00:28;96749.47;;;0.95;100.00
23229;BME280;11783;50.350;6.576;2024-03-07T05:02:56;96749.97;;;0.90;100.00
23229;BME280;11783;50.350;6.576;2024-03-07T05:05:22;96749.31;;;0.88;100.00
23229;BME280;11783;50.350;6.576;2024-03-07T05:07:48;96754.56;;;0.88;100.00
23229;BME280;11783;50.350;6.576;2024-03-07T05:10:15;96755.19;;;0.90;100.00
23229;BME280;11783;50.350;6.576;2024-03-07T05:12:40;96746.69;;;0.88;100.00
23229;BME280;11783;50.350;6.576;2024-03-07T05:15:06;96749.50;;;0.86;100.00
23229;BME280;11783;50.350;6.576;2024-03-07T05:17:35;96753.25;;;0.84;100.00
23229;BME280;11783;50.350;6.576;2024-03-07T05:20:03;96753.97;;;0.70;100.00
23229;BME280;11783;50.350;6.576;2024-03-07T05:22:35;96755.13;;;0.67;100.00
23229;BME280;11783;50.350;6.576;2024-03-07T05:25:00;96749.06;;;0.67;100.00
23229;BME280;11783;50.350;6.576;2024-03-07T05:27:26;96748.25;;;0.66;100.00
23229;BME280;11783;50.350;6.576;2024-03-07T05:29:52;96752.69;;;0.66;100.00
23229;BME280;11783;50.350;6.576;2024-03-07T05:32:21;96745.16;;;0.63;100.00
23229;BME280;11783;50.350;6.576;2024-03-07T05:34:48;96741.91;;;0.60;100.00
23229;BME280;11783;50.350;6.576;2024-03-07T05:37:13;96749.94;;;0.59;100.00
23229;BME280;11783;50.350;6.576;2024-03-07T05:39:38;96743.06;;;0.58;100.00
23229;BME280;11783;50.350;6.576;2024-03-07T05:42:04;96738.81;;;0.57;100.00
23229;BME280;11783;50.350;6.576;2024-03-07T05:44:29;96741.44;;;0.57;100.00
23229;BME280;11783;50.350;6.576;2024-03-07T05:46:55;96744.88;;;0.57;100.00
23229;BME280;11783;50.350;6.576;2024-03-07T05:49:20;96745.50;;;0.51;100.00
23229;BME280;11783;50.350;6.576;2024-03-07T05:51:46;96744.88;;;0.49;100.00
23229;BME280;11783;50.350;6.576;2024-03-07T05:54:12;96745.22;;;0.46;100.00
23229;BME280;11783;50.350;6.576;2024-03-07T05:56:38;96749.13;;;0.50;100.00
23229;BME280;11783;50.350;6.576;2024-03-07T05:59:05;96748.28;;;0.50;100.00
23229;BME280;11783;50.350;6.576;2024-03-07T06:01:32;96751.56;;;0.52;100.00
23229;BME280;11783;50.350;6.576;2024-03-07T06:04:04;96747.56;;;0.72;100.00
23229;BME280;11783;50.350;6.576;2024-03-07T06:06:34;96743.50;;;0.70;100.00
23229;BME280;11783;50.350;6.576;2024-03-07T06:09:01;96748.59;;;0.55;100.00
23229;BME280;11783;50.350;6.576;2024-03-07T06:11:28;96743.88;;;0.50;100.00
23229;BME280;11783;50.350;6.576;2024-03-07T06:13:54;96740.44;;;0.50;100.00
23229;BME280;11783;50.350;6.576;2024-03-07T06:16:19;96742.13;;;0.43;100.00
23229;BME280;11783;50.350;6.576;2024-03-07T06:18:45;96737.69;;;0.43;100.00
23229;BME280;11783;50.350;6.576;2024-03-07T06:21:12;96739.66;;;0.41;100.00
23229;BME280;11783;50.350;6.576;2024-03-07T06:23:38;96740.31;;;0.43;100.00
23229;BME280;11783;50.350;6.576;2024-03-07T06:26:04;96739.03;;;0.39;100.00
23229;BME280;11783;50.350;6.576;2024-03-07T06:28:38;96742.94;;;0.43;100.00
23229;BME280;11783;50.350;6.576;2024-03-07T06:31:04;96738.03;;;0.40;100.00
23229;BME280;11783;50.350;6.576;2024-03-07T06:33:33;96737.53;;;0.37;100.00
23229;BME280;11783;50.350;6.576;2024-03-07T06:35:58;96738.22;;;0.30;100.00
23229;BME280;11783;50.350;6.576;2024-03-07T06:38:23;96734.44;;;0.33;100.00
23229;BME280;11783;50.350;6.576;2024-03-07T06:40:49;96737.22;;;0.32;100.00
23229;BME280;11783;50.350;6.576;2024-03-07T06:43:14;96732.63;;;0.34;100.00
23229;BME280;11783;50.350;6.576;2024-03-07T06:45:40;96733.63;;;0.33;100.00
23229;BME280;11783;50.350;6.576;2024-03-07T06:48:07;96728.72;;;0.29;100.00
23229;BME280;11783;50.350;6.576;2024-03-07T06:50:36;96730.66;;;0.36;100.00
23229;BME280;11783;50.350;6.576;2024-03-07T06:53:03;96732.31;;;0.37;100.00
23229;BME280;11783;50.350;6.576;2024-03-07T06:55:28;96724.47;;;0.37;100.00
23229;BME280;11783;50.350;6.576;2024-03-07T06:57:54;96721.84;;;0.37;100.00
23229;BME280;11783;50.350;6.576;2024-03-07T07:00:20;96728.41;;;0.41;100.00
23229;BME280;11783;50.350;6.576;2024-03-07T07:02:47;96729.38;;;0.40;100.00
23229;BME280;11783;50.350;6.576;2024-03-07T07:05:13;96730.03;;;0.42;100.00
23229;BME280;11783;50.350;6.576;2024-03-07T07:07:41;96725.91;;;0.47;100.00
23229;BME280;11783;50.350;6.576;2024-03-07T07:10:08;96724.41;;;0.53;100.00
23229;BME280;11783;50.350;6.576;2024-03-07T07:12:36;96727.69;;;0.55;100.00
23229;BME280;11783;50.350;6.576;2024-03-07T07:15:02;96728.81;;;0.60;100.00
23229;BME280;11783;50.350;6.576;2024-03-07T07:17:29;96726.63;;;0.80;100.00
23229;BME280;11783;50.350;6.576;2024-03-07T07:19:55;96729.25;;;0.80;100.00
23229;BME280;11783;50.350;6.576;2024-03-07T07:22:24;96728.84;;;0.91;100.00
23229;BME280;11783;50.350;6.576;2024-03-07T07:24:50;96735.53;;;1.02;100.00
23229;BME280;11783;50.350;6.576;2024-03-07T07:27:15;96735.81;;;1.07;100.00
23229;BME280;11783;50.350;6.576;2024-03-07T07:29:41;96735.44;;;1.18;100.00
23229;BME280;11783;50.350;6.576;2024-03-07T07:32:07;96735.28;;;1.20;100.00
23229;BME280;11783;50.350;6.576;2024-03-07T07:34:32;96739.22;;;1.16;100.00
23229;BME280;11783;50.350;6.576;2024-03-07T07:36:57;96728.03;;;1.30;100.00
23229;BME280;11783;50.350;6.576;2024-03-07T07:39:23;96726.06;;;1.32;100.00
23229;BME280;11783;50.350;6.576;2024-03-07T07:41:48;96723.63;;;1.31;100.00
23229;BME280;11783;50.350;6.576;2024-03-07T07:44:14;96728.84;;;1.31;100.00
23229;BME280;11783;50.350;6.576;2024-03-07T07:46:40;96722.16;;;1.51;100.00
23229;BME280;11783;50.350;6.576;2024-03-07T07:49:06;96716.41;;;1.56;100.00
23229;BME280;11783;50.350;6.576;2024-03-07T07:51:31;96722.88;;;1.68;100.00
23229;BME280;11783;50.350;6.576;2024-03-07T07:53:57;96717.91;;;1.73;100.00
23229;BME280;11783;50.350;6.576;2024-03-07T07:56:23;96708.75;;;1.92;100.00
23229;BME280;11783;50.350;6.576;2024-03-07T07:58:49;96712.78;;;2.17;100.00
23229;BME280;11783;50.350;6.576;2024-03-07T08:01:15;96701.06;;;2.42;100.00
23229;BME280;11783;50.350;6.576;2024-03-07T08:03:42;96706.75;;;2.76;100.00
23229;BME280;11783;50.350;6.576;2024-03-07T08:06:09;96688.38;;;2.90;100.00
23229;BME280;11783;50.350;6.576;2024-03-07T08:08:34;96699.84;;;3.04;100.00
23229;BME280;11783;50.350;6.576;2024-03-07T08:10:59;96694.00;;;3.23;100.00
23229;BME280;11783;50.350;6.576;2024-03-07T08:13:26;96686.50;;;3.20;100.00
23229;BME280;11783;50.350;6.576;2024-03-07T08:15:52;96678.25;;;3.23;100.00
23229;BME280;11783;50.350;6.576;2024-03-07T08:18:19;96678.59;;;3.35;100.00
23229;BME280;11783;50.350;6.576;2024-03-07T08:20:45;96680.00;;;3.38;100.00
23229;BME280;11783;50.350;6.576;2024-03-07T08:23:11;96674.38;;;3.41;100.00
23229;BME280;11783;50.350;6.576;2024-03-07T08:25:38;96680.31;;;3.28;100.00
23229;BME280;11783;50.350;6.576;2024-03-07T08:28:06;96672.66;;;3.33;100.00
23229;BME280;11783;50.350;6.576;2024-03-07T08:30:31;96678.31;;;3.51;100.00
23229;BME280;11783;50.350;6.576;2024-03-07T08:32:57;96677.63;;;3.43;100.00
23229;BME280;11783;50.350;6.576;2024-03-07T08:35:24;96676.97;;;3.55;100.00
23229;BME280;11783;50.350;6.576;2024-03-07T08:37:52;96679.94;;;3.52;100.00
23229;BME280;11783;50.350;6.576;2024-03-07T08:40:27;96677.19;;;3.60;100.00
23229;BME280;11783;50.350;6.576;2024-03-07T08:42:58;96673.50;;;3.76;100.00
23229;BME280;11783;50.350;6.576;2024-03-07T08:45:24;96668.09;;;3.84;100.00
23229;BME280;11783;50.350;6.576;2024-03-07T08:47:51;96663.03;;;3.83;100.00
23229;BME280;11783;50.350;6.576;2024-03-07T08:50:17;96662.91;;;3.91;100.00
23229;BME280;11783;50.350;6.576;2024-03-07T08:52:46;96658.91;;;3.95;100.00
23229;BME280;11783;50.350;6.576;2024-03-07T08:55:14;96658.41;;;4.13;100.00
23229;BME280;11783;50.350;6.576;2024-03-07T08:57:41;96656.03;;;4.18;100.00
23229;BME280;11783;50.350;6.576;2024-03-07T09:00:07;96654.28;;;4.32;100.00
23229;BME280;11783;50.350;6.576;2024-03-07T09:02:40;96646.81;;;4.35;100.00
23229;BME280;11783;50.350;6.576;2024-03-07T09:05:06;96649.72;;;4.12;100.00
23229;BME280;11783;50.350;6.576;2024-03-07T09:07:32;96648.78;;;4.26;100.00
23229;BME280;11783;50.350;6.576;2024-03-07T09:09:58;96650.28;;;4.42;100.00
23229;BME280;11783;50.350;6.576;2024-03-07T09:12:23;96642.19;;;4.44;100.00
23229;BME280;11783;50.350;6.576;2024-03-07T09:14:53;96649.09;;;4.45;100.00
23229;BME280;11783;50.350;6.576;2024-03-07T09:17:20;96646.13;;;4.54;100.00
23229;BME280;11783;50.350;6.576;2024-03-07T09:19:45;96642.28;;;4.57;100.00
23229;BME280;11783;50.350;6.576;2024-03-07T09:22:11;96636.81;;;4.59;100.00
23229;BME280;11783;50.350;6.576;2024-03-07T09:24:36;96631.25;;;4.81;100.00
23229;BME280;11783;50.350;6.576;2024-03-07T09:27:03;96639.38;;;4.86;100.00
23229;BME280;11783;50.350;6.576;2024-03-07T09:29:29;96637.38;;;4.89;100.00
23229;BME280;11783;50.350;6.576;2024-03-07T09:31:55;96629.06;;;4.85;100.00
23229;BME280;11783;50.350;6.576;2024-03-07T09:34:22;96635.41;;;5.04;100.00
23229;BME280;11783;50.350;6.576;2024-03-07T09:36:48;96624.88;;;5.10;100.00
23229;BME280;11783;50.350;6.576;2024-03-07T09:39:17;96620.22;;;5.19;100.00
23229;BME280;11783;50.350;6.576;2024-03-07T09:41:44;96623.69;;;5.33;100.00
23229;BME280;11783;50.350;6.576;2024-03-07T09:44:13;96617.84;;;5.51;100.00
23229;BME280;11783;50.350;6.576;2024-03-07T09:46:40;96616.03;;;5.71;100.00
23229;BME280;11783;50.350;6.576;2024-03-07T09:49:05;96624.34;;;5.74;100.00
23229;BME280;11783;50.350;6.576;2024-03-07T09:51:35;96619.47;;;5.65;100.00
23229;BME280;11783;50.350;6.576;2024-03-07T09:54:00;96615.63;;;5.74;100.00
23229;BME280;11783;50.350;6.576;2024-03-07T09:56:28;96614.00;;;5.66;100.00
23229;BME280;11783;50.350;6.576;2024-03-07T09:58:57;96620.50;;;5.64;100.00
23229;BME280;11783;50.350;6.576;2024-03-07T10:01:25;96614.00;;;5.66;100.00
23229;BME280;11783;50.350;6.576;2024-03-07T10:03:59;96614.81;;;5.60;100.00
23229;BME280;11783;50.350;6.576;2024-03-07T10:06:35;96614.22;;;5.65;100.00
23229;BME280;11783;50.350;6.576;2024-03-07T10:09:01;96611.97;;;5.48;100.00
23229;BME280;11783;50.350;6.576;2024-03-07T10:11:26;96621.50;;;5.63;100.00
23229;BME280;11783;50.350;6.576;2024-03-07T10:13:52;96612.38;;;5.72;100.00
23229;BME280;11783;50.350;6.576;2024-03-07T10:16:18;96613.78;;;5.74;100.00
23229;BME280;11783;50.350;6.576;2024-03-07T10:18:44;96621.50;;;5.69;100.00
23229;BME280;11783;50.350;6.576;2024-03-07T10:21:13;96622.50;;;5.75;100.00
23229;BME280;11783;50.350;6.576;2024-03-07T10:23:38;96616.03;;;5.71;100.00
23229;BME280;11783;50.350;6.576;2024-03-07T10:26:05;96614.41;;;5.83;100.00
23229;BME280;11783;50.350;6.576;2024-03-07T10:28:32;96607.94;;;5.92;100.00
23229;BME280;11783;50.350;6.576;2024-03-07T10:30:59;96609.56;;;5.93;100.00
23229;BME280;11783;50.350;6.576;2024-03-07T10:33:28;96614.63;;;6.15;100.00
23229;BME280;11783;50.350;6.576;2024-03-07T10:35:58;96607.28;;;6.23;100.00
23229;BME280;11783;50.350;6.576;2024-03-07T10:38:23;96612.72;;;6.42;100.00
23229;BME280;11783;50.350;6.576;2024-03-07T10:40:53;96600.56;;;6.41;100.00
23229;BME280;11783;50.350;6.576;2024-03-07T10:43:20;96603.97;;;6.54;100.00
23229;BME280;11783;50.350;6.576;2024-03-07T10:45:48;96605.59;;;6.49;100.00
23229;BME280;11783;50.350;6.576;2024-03-07T10:48:18;96609.84;;;6.56;100.00
23229;BME280;11783;50.350;6.576;2024-03-07T10:51:06;96607.84;;;6.45;100.00
23229;BME280;11783;50.350;6.576;2024-03-07T10:53:45;96597.97;;;6.79;100.00
23229;BME280;11783;50.350;6.576;2024-03-07T10:59:18;96600.44;;;6.74;100.00
23229;BME280;11783;50.350;6.576;2024-03-07T11:04:22;96597.94;;;6.85;100.00
23229;BME280;11783;50.350;6.576;2024-03-07T11:06:47;96606.03;;;6.97;100.00
23229;BME280;11783;50.350;6.576;2024-03-07T11:09:14;96595.91;;;6.87;100.00
23229;BME280;11783;50.350;6.576;2024-03-07T11:11:48;96600.06;;;6.70;100.00
23229;BME280;11783;50.350;6.576;2024-03-07T11:14:14;96597.22;;;6.72;100.00
23229;BME280;11783;50.350;6.576;2024-03-07T11:16:42;96610.22;;;6.66;100.00
23229;BME280;11783;50.350;6.576;2024-03-07T11:19:37;96609.19;;;6.74;100.00
23229;BME280;11783;50.350;6.576;2024-03-07T11:22:03;96592.28;;;6.82;100.00
23229;BME280;11783;50.350;6.576;2024-03-07T11:24:41;96599.25;;;6.70;100.00
23229;BME280;11783;50.350;6.576;2024-03-07T11:27:09;96592.38;;;6.55;100.00
23229;BME280;11783;50.350;6.576;2024-03-07T11:29:48;96597.00;;;6.66;100.00
23229;BME280;11783;50.350;6.576;2024-03-07T11:32:18;96601.28;;;6.67;100.00
23229;BME280;11783;50.350;6.576;2024-03-07T11:34:46;96602.28;;;6.66;100.00
23229;BME280;11783;50.350;6.576;2024-03-07T11:37:19;96594.38;;;6.66;100.00
23229;BME280;11783;50.350;6.576;2024-03-07T11:39:49;96595.00;;;6.62;100.00
23229;BME280;11783;50.350;6.576;2024-03-07T11:44:45;96591.19;;;6.45;100.00
23229;BME280;11783;50.350;6.576;2024-03-07T11:47:12;96584.38;;;6.11;100.00
23229;BME280;11783;50.350;6.576;2024-03-07T11:49:38;96577.28;;;6.04;100.00
23229;BME280;11783;50.350;6.576;2024-03-07T11:52:04;96583.97;;;6.20;100.00
23229;BME280;11783;50.350;6.576;2024-03-07T11:54:37;96572.97;;;6.30;100.00
23229;BME280;11783;50.350;6.576;2024-03-07T11:57:06;96562.75;;;6.47;100.00
23229;BME280;11783;50.350;6.576;2024-03-07T11:59:39;96561.94;;;6.53;100.00
23229;BME280;11783;50.350;6.576;2024-03-07T12:02:05;96571.66;;;6.59;100.00
23229;BME280;11783;50.350;6.576;2024-03-07T12:04:31;96555.81;;;6.59;100.00
23229;BME280;11783;50.350;6.576;2024-03-07T12:07:00;96551.50;;;6.64;100.00
23229;BME280;11783;50.350;6.576;2024-03-07T12:09:26;96553.16;;;6.59;100.00
23229;BME280;11783;50.350;6.576;2024-03-07T12:11:51;96547.69;;;6.60;100.00
23229;BME280;11783;50.350;6.576;2024-03-07T12:14:20;96539.47;;;6.75;100.00
23229;BME280;11783;50.350;6.576;2024-03-07T12:16:46;96536.53;;;6.96;100.00
23229;BME280;11783;50.350;6.576;2024-03-07T12:19:12;96529.50;;;7.15;100.00
23229;BME280;11783;50.350;6.576;2024-03-07T12:21:42;96531.28;;;7.21;100.00
23229;BME280;11783;50.350;6.576;2024-03-07T12:24:12;96519.91;;;7.46;100.00
23229;BME280;11783;50.350;6.576;2024-03-07T12:26:38;96518.53;;;7.62;100.00
23229;BME280;11783;50.350;6.576;2024-03-07T12:29:10;96512.63;;;7.66;100.00
23229;BME280;11783;50.350;6.576;2024-03-07T12:31:39;96510.13;;;7.71;100.00
23229;BME280;11783;50.350;6.576;2024-03-07T12:34:05;96507.81;;;7.56;100.00
23229;BME280;11783;50.350;6.576;2024-03-07T12:36:34;96496.81;;;7.78;100.00
23229;BME280;11783;50.350;6.576;2024-03-07T12:39:31;96497.50;;;7.92;100.00
23229;BME280;11783;50.350;6.576;2024-03-07T12:42:03;96500.97;;;8.10;100.00
23229;BME280;11783;50.350;6.576;2024-03-07T12:44:41;96484.28;;;8.28;100.00
23229;BME280;11783;50.350;6.576;2024-03-07T12:47:14;96482.78;;;8.32;100.00
23229;BME280;11783;50.350;6.576;2024-03-07T12:49:43;96473.47;;;8.48;100.00
23229;BME280;11783;50.350;6.576;2024-03-07T12:52:09;96473.69;;;8.46;100.00
23229;BME280;11783;50.350;6.576;2024-03-07T12:54:35;96481.59;;;8.65;100.00
23229;BME280;11783;50.350;6.576;2024-03-07T12:57:24;96480.38;;;8.31;100.00
23229;BME280;11783;50.350;6.576;2024-03-07T12:59:49;96484.13;;;8.23;100.00
23229;BME280;11783;50.350;6.576;2024-03-07T13:02:15;96479.53;;;8.37;100.00
23229;BME280;11783;50.350;6.576;2024-03-07T13:04:41;96468.38;;;8.28;100.00
23229;BME280;11783;50.350;6.576;2024-03-07T13:07:09;96466.34;;;8.12;100.00